»·PEaware :: N4131C KHII-KHND

N4131C :: KHII-KHND

FLIGHT INFORMATION

Flight Status: Arrived
Operator: Privately registered:
United States
More flights under this callsign
Pilot: Nils P. (29346)
Aircraft: PIPER PA-28R-201 ARROW
(P28R)
More flights by this aircraft type
Origin: KHII Lake Havasu City
United States
Destination: KHND Henderson
United States
More flights between these airports :: More routes between these airports
Route: EED KBVU
File this flight plan on PilotEdge
Remarks:
Altitude:
(Current/Filed)
4,500ft
Speed:
(Current/Filed)
100kts
Departed: 29-Sep-20 10:40 AM
Arrived: 29-Sep-20 11:38 AM
Distance/Time
Traveled:
92nm/0:58
Distance/Time
To Go:
Arrived

Flight Plot

Page will automatically refresh every two minutes.

Flight plan parsing failed; only flown route is shown


Map Options




Map Legend


Flown Route
Filed Route
Departure Airport
Arrival Airport
Navaid (VOR, NDB)
Fix

Horizontal Profiles

Position Reports

Time Latitude Longitude Heading Altitude Ground
Speed
29-Sep-20 10:13 34.570457 -114.360924 62 736ft 0kts
29-Sep-20 10:14 34.570457 -114.360924 62 736ft 0kts
29-Sep-20 10:15 34.570457 -114.360924 62 736ft 0kts
29-Sep-20 10:16 34.570457 -114.360924 62 736ft 0kts
29-Sep-20 10:17 34.570458 -114.360924 62 736ft 0kts
29-Sep-20 10:18 34.570458 -114.360924 62 736ft 0kts
29-Sep-20 10:19 34.570458 -114.360924 62 736ft 0kts
29-Sep-20 10:20 34.570458 -114.360924 62 736ft 0kts
29-Sep-20 10:21 34.570458 -114.360924 62 736ft 0kts
29-Sep-20 10:22 34.570458 -114.360924 62 736ft 0kts
29-Sep-20 10:23 34.570458 -114.360924 62 736ft 0kts
29-Sep-20 10:24 34.570458 -114.360924 62 736ft 0kts
29-Sep-20 10:25 34.570458 -114.360924 62 736ft 0kts
29-Sep-20 10:26 34.570458 -114.360924 62 736ft 0kts
29-Sep-20 10:27 34.570458 -114.360924 62 736ft 0kts
29-Sep-20 10:28 34.570458 -114.360924 62 736ft 0kts
29-Sep-20 10:29 34.569712 -114.360060 79 737ft 7kts
29-Sep-20 10:30 34.570170 -114.358968 131 745ft 6kts
29-Sep-20 10:31 34.567468 -114.356999 149 747ft 11kts
29-Sep-20 10:32 34.565130 -114.355340 149 752ft 7kts
29-Sep-20 10:33 34.563102 -114.353904 150 762ft 8kts
29-Sep-20 10:34 34.561696 -114.353211 189 766ft 0kts
29-Sep-20 10:35 34.561696 -114.353211 189 766ft 0kts
29-Sep-20 10:36 34.561696 -114.353211 189 766ft 0kts
29-Sep-20 10:37 34.561491 -114.352891 119 768ft 3kts
29-Sep-20 10:38 34.562025 -114.351838 331 780ft 10kts
29-Sep-20 10:39 34.576659 -114.362739 321 1530ft 77kts
29-Sep-20 10:40 34.593416 -114.379260 318 2659ft 79kts
29-Sep-20 10:41 34.609174 -114.398064 329 3691ft 83kts
29-Sep-20 10:42 34.628620 -114.413775 322 4548ft 96kts
29-Sep-20 10:43 34.655001 -114.433291 331 4712ft 123kts
29-Sep-20 10:44 34.688493 -114.447015 346 4589ft 125kts
29-Sep-20 10:45 34.723300 -114.456897 346 4420ft 126kts
29-Sep-20 10:46 34.756404 -114.468744 342 4447ft 124kts
29-Sep-20 10:47 34.789940 -114.479417 346 4436ft 125kts
29-Sep-20 10:48 34.823740 -114.487514 346 4500ft 122kts
29-Sep-20 10:49 34.857051 -114.494318 351 4566ft 121kts
29-Sep-20 10:50 34.890487 -114.498716 350 4613ft 120kts
29-Sep-20 10:51 34.923226 -114.504933 341 4651ft 117kts
29-Sep-20 10:52 34.954113 -114.518815 338 4558ft 116kts
29-Sep-20 10:53 34.984730 -114.532064 348 4414ft 117kts
29-Sep-20 10:54 35.016018 -114.540047 349 4324ft 114kts
29-Sep-20 10:55 35.046402 -114.543060 351 4414ft 108kts
29-Sep-20 10:56 35.076191 -114.545441 351 4503ft 106kts
29-Sep-20 10:57 35.105852 -114.549412 349 4548ft 108kts
29-Sep-20 10:58 35.135980 -114.553001 353 4626ft 110kts
29-Sep-20 10:59 35.165418 -114.559759 338 4692ft 109kts
29-Sep-20 11:00 35.194914 -114.569600 341 4643ft 112kts
29-Sep-20 11:01 35.226111 -114.572405 355 4558ft 113kts
29-Sep-20 11:02 35.257024 -114.578760 344 4405ft 113kts
29-Sep-20 11:03 35.286778 -114.588426 341 4367ft 109kts
29-Sep-20 11:04 35.314415 -114.597528 345 4568ft 110kts
29-Sep-20 11:06 35.345741 -114.600685 352 4495ft 113kts
29-Sep-20 11:07 35.376681 -114.605190 346 4441ft 111kts
29-Sep-20 11:08 35.407171 -114.612092 346 4389ft 111kts
29-Sep-20 11:09 35.436488 -114.619658 343 4502ft 107kts
29-Sep-20 11:10 35.466025 -114.625602 347 4594ft 108kts
29-Sep-20 11:11 35.496847 -114.629724 351 4542ft 113kts
29-Sep-20 11:12 35.528295 -114.630504 353 4494ft 112kts
29-Sep-20 11:13 35.559047 -114.635656 350 4447ft 111kts
29-Sep-20 11:14 35.588301 -114.645529 335 4533ft 107kts
29-Sep-20 11:15 35.616692 -114.659304 342 4591ft 110kts
29-Sep-20 11:16 35.645982 -114.671400 342 4656ft 112kts
29-Sep-20 11:17 35.675559 -114.685177 340 4718ft 115kts
29-Sep-20 11:18 35.706149 -114.696551 347 4795ft 115kts
29-Sep-20 11:19 35.737949 -114.705721 350 4761ft 117kts
29-Sep-20 11:20 35.770542 -114.705614 4 4712ft 117kts
29-Sep-20 11:20 35.796997 -114.709462 329 4704ft 118kts
29-Sep-20 11:22 35.826626 -114.740808 317 4645ft 121kts
29-Sep-20 11:23 35.850345 -114.769988 321 4662ft 119kts
29-Sep-20 11:23 35.871276 -114.792511 322 4665ft 119kts
29-Sep-20 11:24 35.896696 -114.818763 325 4672ft 119kts
29-Sep-20 11:26 35.928381 -114.846007 326 4677ft 119kts
29-Sep-20 11:26 35.945021 -114.872916 289 4669ft 125kts
29-Sep-20 11:27 35.954275 -114.914259 293 4672ft 124kts
29-Sep-20 11:28 35.964785 -114.954782 279 4668ft 127kts
29-Sep-20 11:29 35.966222 -114.998313 281 4673ft 126kts
29-Sep-20 11:30 35.971068 -115.041008 286 4694ft 124kts
29-Sep-20 11:31 35.986708 -115.078014 302 4553ft 121kts
29-Sep-20 11:32 35.988403 -115.118491 215 3574ft 142kts
29-Sep-20 11:33 35.955941 -115.117765 162 3646ft 92kts
29-Sep-20 11:34 35.935931 -115.120762 275 3356ft 84kts
29-Sep-20 11:35 35.949869 -115.133698 359 3077ft 77kts
29-Sep-20 11:36 35.969306 -115.133068 355 2452ft 43kts
29-Sep-20 11:37 35.974390 -115.133648 269 2427ft 0kts
29-Sep-20 11:38 35.974406 -115.134868 270 2427ft 12kts
29-Sep-20 11:39 35.973018 -115.136433 179 2430ft 7kts
29-Sep-20 11:40 35.971092 -115.136460 189 2440ft 7kts
29-Sep-20 11:41 35.970382 -115.137618 181 2440ft 0kts
29-Sep-20 11:42 35.970382 -115.137618 181 2440ft 0kts

Navigation Log

Ident Type
Flight plan parsing failed, navigation log unavailable